Flight Track Log - Related Links

Times and Time Zones

All times are in EDT time to prevent confusion due to time zone crossing. See the AWI4084 flight status page for this flight to view local times or setup timezone preferences in your user account.

Time Position Orientation Groundspeed Altitude Reporting Facility
EDT Latitude Longitude Course Direction KTS MPH feet Rate Location/Type
Thu 03:38:40 PM 38.8000 -77.0333 346° North 158 182 2,200  Level Potomac TRACON
Thu 03:39:40 PM 38.7500 -77.0500 195° South 174 200 3,900 2,000 Climbing Potomac TRACON
Thu 03:40:00 PM 39.0932 -77.1651 336° Northwest  Level FlightAware Approximate
Thu 03:40:40 PM 38.7167 -77.0833 218° Southwest 199 229 6,200  Level Potomac TRACON
Thu 03:41:00 PM 39.1763 -77.2126 336° Northwest  Level FlightAware Approximate
Thu 03:41:41 PM 38.6833 -77.1333 230° Southwest 193 222 9,100  Level Potomac TRACON
Thu 03:42:00 PM 39.2623 -77.2494 337° Northwest  Level FlightAware Approximate
Thu 03:42:41 PM 38.6833 -77.2000 270° West 198 228 11,400  Level Potomac TRACON
Thu 03:43:00 PM 39.3459 -77.2958 337° Northwest  Level FlightAware Approximate
Thu 03:43:41 PM 38.7000 -77.2667 288° West 203 234 13,500  Level Potomac TRACON
Thu 03:44:00 PM 39.4329 -77.3332 346° North  Level FlightAware Approximate
Thu 03:44:47 PM 38.7500 -77.3500 308° West 265 305 15,100  Level Potomac TRACON
Thu 03:45:41 PM 38.7833 -77.4333 297° West 273 314 16,400 1,053 Climbing Potomac TRACON
Thu 03:46:41 PM 38.8500 -77.4833 330° Northwest 319 367 17,100 222 Climbing Potomac TRACON
Thu 03:48:23 PM 38.9992 -77.5708 335° Northwest 383 441 17,000 37 Descending Washington Center
Thu 03:49:22 PM 39.0886 -77.5811 355° North 350 403 17,200 900 Climbing Washington Center
Thu 03:50:23 PM 39.2017 -77.5575 North 345 397 18,800 1,181 Climbing Washington Center
Thu 03:52:30 PM 39.4122 -77.5083 10° North 377 434 20,900 926 Climbing New York Center
Thu 03:53:31 PM 39.5181 -77.4833 10° North 377 434 21,700 807 Climbing New York Center
Thu 03:54:29 PM 39.6281 -77.4561 11° North 382 440 22,500 1,008 Climbing New York Center
Thu 03:55:30 PM 39.7308 -77.4064 20° North 387 445 23,700 1,082 Climbing New York Center
Thu 03:56:31 PM 39.8358 -77.3542 21° North 393 452 24,700 655 Climbing New York Center
Thu 03:57:29 PM 39.9411 -77.2992 22° Northeast 399 459 25,000 153 Climbing New York Center
Thu 03:58:29 PM 40.0467 -77.2411 23° Northeast 404 465 25,000  Level New York Center
Thu 03:59:30 PM 40.1644 -77.1842 20° North 404 465 25,000  Level New York Center
Thu 04:00:31 PM 40.2736 -77.1289 21° North 404 465 25,000  Level New York Center
Thu 04:01:28 PM 40.3808 -77.0733 22° Northeast 404 465 25,000  Level New York Center
Thu 04:02:29 PM 40.4900 -77.0178 21° North 409 471 25,000 -590 Level New York Center
Thu 04:03:30 PM 40.6036 -76.9625 20° North 415 478 23,800 -984 Descending New York Center
Thu 04:04:31 PM 40.7122 -76.9150 18° North 415 478 23,000 -403 Descending New York Center
Thu 04:05:29 PM 40.8244 -76.8839 12° North 410 472 23,000  Level New York Center
Thu 04:06:29 PM 40.9344 -76.8525 12° North 404 465 23,000  Level New York Center
Thu 04:07:30 PM 41.0422 -76.8236 11° North 393 452 23,000  Level New York Center
Thu 04:08:29 PM 41.1497 -76.7944 12° North 393 452 23,000  Level New York Center
Thu 04:09:30 PM 41.2556 -76.7653 12° North 393 452 23,000  Level New York Center
Thu 04:10:30 PM 41.3614 -76.7333 13° North 388 447 23,000  Level New York Center
Thu 04:11:31 PM 41.4669 -76.7039 12° North 388 447 23,000  Level New York Center
Thu 04:12:31 PM 41.5728 -76.6717 13° North 383 441 23,000  Level New York Center
Thu 04:13:29 PM 41.6761 -76.6447 11° North 383 441 23,000  Level New York Center
Thu 04:14:29 PM 41.7817 -76.6122 13° North 378 435 23,000  Level New York Center
Thu 04:15:28 PM 41.8853 -76.5822 12° North 378 435 23,000 -750 Level New York Center
Thu 04:16:29 PM 41.9908 -76.5525 12° North 378 435 21,500 -1,884 Descending New York Center
Thu 04:17:29 PM 42.0944 -76.5225 12° North 378 435 19,200 -2,430 Descending New York Center
Thu 04:18:30 PM 42.1936 -76.4919 13° North 378 435 16,600 -2,115 Descending New York Center
Thu 04:19:31 PM 42.2800 -76.4686 11° North 365 420 14,900 -1,983 Descending New York Center
Thu 04:20:31 PM 42.3750 -76.4403 12° North 355 409 12,600 -1,773 Descending New York Center
Thu 04:21:43 PM 42.4936 -76.4081 11° North 321 369 11,000 -727 Descending Boston Center
Thu 04:22:43 PM 42.5800 -76.3853 11° North 310 357 11,000  Level Boston Center
Thu 04:23:44 PM 42.6622 -76.3567 14° North 314 361 11,000 -639 Level Boston Center
Thu 04:24:45 PM 42.7436 -76.3561 360° North 293 337 9,700 -1,488 Descending Boston Center
Thu 04:25:45 PM 42.8244 -76.3669 354° North 275 316 8,000 -1,934 Descending Boston Center
Thu 04:26:46 PM 42.8975 -76.3689 359° North 267 307 5,800 -1,967 Descending Boston Center
Thu 04:27:47 PM 42.9806 -76.3742 357° North 270 311 4,000 -1,686 Descending Boston Center
Thu 04:28:47 PM 43.0514 -76.3786 357° North 254 292 2,400 -793 Descending Boston Center
Thu 04:29:48 PM 43.0919 -76.3500 27° Northeast 162 186 2,400 -148 Level Boston Center
Thu 04:30:49 PM 43.1022 -76.2967 75° East 126 145 2,100 -295 Descending Boston Center

Login

Don't have an account? Register now (free) for customized features, flight alerts, and more!